Ipaba, Brazil
Current Conditions -  °F | °C
As of 6:00 PM on Thursday 27 Nov 2014 (Local Time) from SBIP Reporting Station
Broken Clouds Broken Clouds  
Wind Chill: 84°   Ceiling: 8000
Heat Index: 86°   Visibility: 6mi
Dew Point: 66°   Wind: 6mph
Humidity: 55%   Direction: 230°SW
Pressure: 29.8"   Gusts: NA
Location:  19.41°S, 42.42°W
Report Text: SBIP 272000Z 23005KT 9999 SCT030 SCT035 BKN080 29/19 Q1009
Loading
Personal Weather Stations






























Interactive Weather Map New forecast layout! Learn more

10-Day Weather Forecast

Advertisements
Track Severe Weather on mobile